Time;durP1;ratioP1;P1;durP2;ratioP2;P2;SDS_P1;SDS_P2;PMS_P1;PMS_P2;Temp;Humidity;BMP_temperature;BMP_pressure;BME280_temperature;BME280_humidity;BME280_pressure;Samples;Min_cycle;Max_cycle;Signal;HPM_P1;HPM_P2
2021/08/29 00:00:29;;;;;;;0.90;0.35;;;15.40;82.90;;;;;;4989822;28;20483;-81
2021/08/29 00:02:55;;;;;;;0.73;0.40;;;15.40;82.90;;;;;;4991535;28;20137;-80
2021/08/29 00:05:20;;;;;;;0.88;0.50;;;15.30;82.90;;;;;;4990379;28;20057;-80
2021/08/29 00:07:46;;;;;;;0.60;0.60;;;15.40;83.00;;;;;;4990080;28;20054;-84
2021/08/29 00:10:12;;;;;;;0.50;0.50;;;15.40;83.00;;;;;;4991096;28;20399;-81
2021/08/29 00:12:37;;;;;;;0.50;0.50;;;15.40;83.00;;;;;;5007288;28;20078;-81
2021/08/29 00:15:04;;;;;;;0.25;0.25;;;15.50;83.10;;;;;;4990624;28;20046;-81
2021/08/29 00:17:30;;;;;;;0.80;0.40;;;15.50;83.10;;;;;;4993140;28;20053;-79
2021/08/29 00:19:56;;;;;;;1.23;0.50;;;15.50;83.10;;;;;;4994055;28;20133;-78
2021/08/29 00:22:21;;;;;;;0.63;0.40;;;15.50;83.10;;;;;;4995902;28;20041;-80
2021/08/29 00:24:47;;;;;;;0.60;0.60;;;15.50;83.20;;;;;;4996512;28;20034;-81
2021/08/29 00:27:14;;;;;;;0.65;0.52;;;15.60;83.20;;;;;;4995321;28;20035;-78
2021/08/29 00:29:39;;;;;;;0.88;0.52;;;15.50;83.40;;;;;;4994208;28;20088;-80
2021/08/29 00:32:06;;;;;;;0.77;0.60;;;15.50;83.20;;;;;;5009249;28;20133;-80
2021/08/29 00:34:32;;;;;;;0.90;0.68;;;15.50;83.20;;;;;;4992776;28;20051;-81
2021/08/29 00:36:58;;;;;;;1.63;0.80;;;15.50;83.20;;;;;;4993838;28;20046;-82
2021/08/29 00:39:24;;;;;;;0.80;0.70;;;15.60;83.20;;;;;;5010284;28;20117;-83
2021/08/29 00:41:49;;;;;;;1.17;0.65;;;15.60;83.20;;;;;;4993078;28;20049;-82
2021/08/29 00:44:15;;;;;;;1.38;0.65;;;15.60;83.20;;;;;;4994228;28;20376;-79
2021/08/29 00:46:43;;;;;;;0.60;0.60;;;15.60;83.30;;;;;;4993804;28;20060;-80
2021/08/29 00:49:11;;;;;;;0.95;0.60;;;15.60;83.30;;;;;;4993893;28;20046;-81
2021/08/29 00:51:36;;;;;;;1.38;0.60;;;15.60;83.30;;;;;;4993064;28;20050;-81
2021/08/29 00:54:02;;;;;;;1.27;0.40;;;15.60;83.30;;;;;;4995654;28;20042;-77
2021/08/29 00:56:28;;;;;;;0.75;0.50;;;15.60;83.30;;;;;;4995590;28;20138;-78
2021/08/29 00:58:56;;;;;;;1.38;0.80;;;15.60;83.30;;;;;;4992866;28;20054;-81
2021/08/29 01:01:31;;;;;;;0.90;0.68;;;15.60;83.30;;;;;;4992353;28;20069;-78
2021/08/29 01:04:03;;;;;;;1.02;0.70;;;15.60;83.30;;;;;;4993278;28;20050;-80
2021/08/29 01:06:39;;;;;;;1.52;0.60;;;15.60;83.40;;;;;;4995324;28;20561;-82
2021/08/29 01:09:07;;;;;;;1.40;0.60;;;15.70;83.40;;;;;;4978482;28;20125;-82
2021/08/29 01:11:36;;;;;;;2.33;0.80;;;15.60;83.30;;;;;;4993793;28;20454;-80
2021/08/29 01:14:06;;;;;;;0.85;0.70;;;15.70;83.40;;;;;;5009614;28;20379;-81
2021/08/29 01:16:35;;;;;;;0.60;0.50;;;15.70;83.40;;;;;;4993295;28;20516;-82
2021/08/29 01:19:06;;;;;;;0.68;0.50;;;15.70;83.40;;;;;;4994948;28;20038;-82
2021/08/29 01:21:35;;;;;;;1.83;0.55;;;15.70;83.40;;;;;;4993419;28;20490;-80
2021/08/29 01:24:05;;;;;;;0.82;0.73;;;15.70;83.50;;;;;;4993591;28;20458;-79
2021/08/29 01:26:50;;;;;;;2.80;0.70;;;15.70;83.50;;;;;;5009465;28;20498;-82
2021/08/29 01:29:19;;;;;;;1.05;0.60;;;15.70;83.60;;;;;;4993346;28;20057;-81
2021/08/29 01:31:45;;;;;;;0.90;0.60;;;15.70;83.50;;;;;;4994653;28;20101;-80
2021/08/29 01:34:14;;;;;;;1.13;0.80;;;15.60;83.40;;;;;;4975919;28;20053;-79
2021/08/29 01:36:42;;;;;;;1.42;0.50;;;15.70;83.50;;;;;;4992131;28;20048;-78
2021/08/29 01:39:08;;;;;;;1.00;0.63;;;15.80;83.60;;;;;;5008189;28;20042;-78
2021/08/29 01:41:37;;;;;;;1.25;0.60;;;15.80;83.60;;;;;;4993946;28;20387;-79
2021/08/29 01:44:04;;;;;;;0.60;0.50;;;15.80;83.60;;;;;;4992990;28;20050;-79
2021/08/29 01:46:30;;;;;;;0.88;0.70;;;15.80;83.60;;;;;;4993098;28;20186;-79
2021/08/29 01:48:57;;;;;;;0.68;0.40;;;15.70;83.50;;;;;;4993425;28;20054;-79
2021/08/29 01:51:22;;;;;;;1.05;0.60;;;15.80;83.60;;;;;;4994763;28;20479;-78
2021/08/29 01:53:49;;;;;;;1.35;0.80;;;15.80;83.60;;;;;;4992203;28;20061;-78
2021/08/29 01:56:14;;;;;;;0.90;0.70;;;15.80;84.30;;;;;;4991565;28;20429;-78
2021/08/29 01:58:40;;;;;;;1.30;0.70;;;15.80;83.60;;;;;;4994745;28;20118;-78
2021/08/29 02:01:11;;;;;;;0.82;0.60;;;15.80;83.60;;;;;;4994087;28;20030;-79
2021/08/29 02:03:40;;;;;;;1.15;0.70;;;15.80;83.60;;;;;;4992612;28;20057;-78
2021/08/29 02:06:18;;;;;;;0.70;0.60;;;15.80;83.60;;;;;;5008856;28;20084;-79
2021/08/29 02:08:51;;;;;;;0.50;0.50;;;15.80;83.70;;;;;;4991445;28;20047;-78
2021/08/29 02:11:20;;;;;;;1.20;0.50;;;15.80;83.60;;;;;;4991888;28;20049;-78
2021/08/29 02:13:49;;;;;;;0.98;0.52;;;15.90;83.70;;;;;;4994464;28;20057;-78
2021/08/29 02:16:18;;;;;;;1.05;0.70;;;15.80;83.70;;;;;;4994059;28;20078;-78
2021/08/29 02:18:50;;;;;;;1.42;0.68;;;15.90;83.80;;;;;;4991211;28;20042;-79
2021/08/29 02:21:16;;;;;;;0.77;0.50;;;15.80;83.70;;;;;;4994107;28;20151;-78
2021/08/29 02:23:45;;;;;;;1.27;0.82;;;15.90;83.80;;;;;;5009123;28;20077;-78
2021/08/29 02:26:12;;;;;;;1.38;0.68;;;15.90;83.80;;;;;;4992729;28;20057;-78
2021/08/29 02:28:38;;;;;;;1.00;0.73;;;15.80;83.70;;;;;;4994421;28;20066;-77
2021/08/29 02:31:05;;;;;;;0.63;0.50;;;15.90;83.80;;;;;;4991897;28;20034;-78
2021/08/29 02:33:31;;;;;;;0.85;0.77;;;15.90;83.80;;;;;;4994262;28;20050;-79
2021/08/29 02:36:00;;;;;;;0.60;0.60;;;15.90;83.70;;;;;;4992767;28;20050;-79
2021/08/29 02:38:26;;;;;;;1.20;0.75;;;15.90;83.80;;;;;;4991609;28;20049;-79
2021/08/29 02:40:55;;;;;;;1.65;0.88;;;15.90;83.80;;;;;;4991187;28;20047;-79
2021/08/29 02:43:23;;;;;;;1.17;0.77;;;15.90;83.80;;;;;;4991364;28;20402;-79
2021/08/29 02:45:49;;;;;;;0.80;0.70;;;15.90;83.70;;;;;;4991012;28;20045;-79
2021/08/29 02:48:17;;;;;;;1.77;1.05;;;15.90;83.70;;;;;;4993771;28;20042;-78
2021/08/29 02:50:45;;;;;;;1.40;1.08;;;15.90;83.80;;;;;;4993932;28;20034;-78
2021/08/29 02:53:16;;;;;;;1.33;1.00;;;15.90;83.80;;;;;;4994382;28;20038;-78
2021/08/29 02:55:45;;;;;;;1.30;1.20;;;15.90;83.80;;;;;;5008256;28;20089;-78
2021/08/29 02:58:13;;;;;;;2.83;1.05;;;15.90;83.80;;;;;;5009246;28;20035;-79
2021/08/29 03:00:38;;;;;;;2.33;1.25;;;15.90;83.80;;;;;;5009038;28;20479;-79
2021/08/29 03:03:04;;;;;;;5.32;2.38;;;15.90;83.80;;;;;;4994045;28;20061;-78
2021/08/29 03:05:31;;;;;;;2.65;1.60;;;15.90;83.80;;;;;;5006474;28;20405;-79
2021/08/29 03:07:57;;;;;;;2.88;1.50;;;15.90;83.70;;;;;;4993713;28;20368;-79
2021/08/29 03:10:23;;;;;;;2.78;1.63;;;15.90;83.70;;;;;;4991124;28;20053;-78
2021/08/29 03:12:50;;;;;;;3.38;1.63;;;15.90;83.60;;;;;;4993518;28;20034;-79
2021/08/29 03:15:16;;;;;;;3.22;1.60;;;15.90;83.60;;;;;;4993653;28;20527;-78
2021/08/29 03:17:41;;;;;;;3.03;1.40;;;15.90;83.60;;;;;;4993455;28;20054;-78
2021/08/29 03:20:08;;;;;;;3.00;1.80;;;15.90;83.70;;;;;;5007365;28;20042;-78
2021/08/29 03:22:35;;;;;;;3.47;1.80;;;15.90;83.70;;;;;;4993403;28;20042;-78
2021/08/29 03:25:01;;;;;;;5.57;2.10;;;15.90;83.70;;;;;;4993419;28;20066;-78
2021/08/29 03:27:27;;;;;;;5.53;2.20;;;15.90;83.60;;;;;;5007156;28;20042;-78
2021/08/29 03:29:53;;;;;;;3.72;1.67;;;15.90;83.60;;;;;;4990371;28;20042;-78
2021/08/29 03:32:20;;;;;;;2.58;1.33;;;15.90;83.60;;;;;;4993369;28;20054;-78
2021/08/29 03:34:47;;;;;;;3.70;1.50;;;15.90;83.60;;;;;;4991879;28;20062;-79
2021/08/29 03:37:13;;;;;;;1.80;1.25;;;16.00;83.80;;;;;;4990754;28;20490;-79
2021/08/29 03:39:40;;;;;;;2.17;1.35;;;15.90;83.80;;;;;;4993382;28;20093;-79
2021/08/29 03:42:06;;;;;;;2.15;1.23;;;15.90;83.80;;;;;;4990442;28;20471;-79
2021/08/29 03:44:33;;;;;;;1.35;1.08;;;15.90;83.90;;;;;;4991312;28;20039;-79
2021/08/29 03:46:59;;;;;;;1.65;1.10;;;15.80;83.90;;;;;;4990860;28;20038;-78
2021/08/29 03:49:25;;;;;;;1.70;1.08;;;15.80;84.10;;;;;;4990780;28;20039;-79
2021/08/29 03:51:53;;;;;;;1.70;1.00;;;15.80;84.10;;;;;;4989184;28;20038;-78
2021/08/29 03:54:19;;;;;;;2.05;1.00;;;15.80;84.20;;;;;;4991224;28;20042;-79
2021/08/29 03:56:45;;;;;;;1.75;1.00;;;15.70;84.20;;;;;;5006864;28;20550;-79
2021/08/29 03:59:11;;;;;;;0.95;0.75;;;15.80;84.30;;;;;;4989994;28;20181;-79
2021/08/29 04:01:37;;;;;;;2.05;0.75;;;15.70;84.30;;;;;;4992894;28;20038;-79
2021/08/29 04:04:03;;;;;;;1.52;0.98;;;15.80;84.40;;;;;;4992763;28;20046;-78
2021/08/29 04:06:33;;;;;;;1.02;0.88;;;15.70;84.40;;;;;;4990646;28;20062;-78
2021/08/29 04:09:03;;;;;;;1.13;0.90;;;15.70;84.40;;;;;;4990151;28;20042;-78
2021/08/29 04:11:30;;;;;;;1.48;0.85;;;15.70;84.40;;;;;;4990486;28;20089;-77
2021/08/29 04:13:56;;;;;;;0.88;0.60;;;15.70;84.40;;;;;;4990194;28;20054;-77
2021/08/29 04:16:23;;;;;;;1.10;0.80;;;15.80;84.40;;;;;;4987270;28;20442;-77
2021/08/29 04:18:49;;;;;;;2.05;0.75;;;15.80;84.40;;;;;;4991123;28;20046;-77
2021/08/29 04:21:18;;;;;;;1.98;0.90;;;15.80;84.40;;;;;;4990440;28;20046;-77
2021/08/29 04:23:44;;;;;;;1.67;0.80;;;15.80;84.30;;;;;;4989915;28;20133;-78
2021/08/29 04:26:10;;;;;;;1.00;0.70;;;15.80;84.40;;;;;;4989731;28;20445;-78
2021/08/29 04:28:37;;;;;;;0.70;0.70;;;15.80;84.30;;;;;;4991009;28;20114;-77
2021/08/29 04:31:10;;;;;;;0.75;0.60;;;15.80;84.30;;;;;;4990989;28;20383;-77
2021/08/29 04:33:36;;;;;;;1.73;0.90;;;15.90;84.40;;;;;;4990866;28;20130;-77
2021/08/29 04:36:05;;;;;;;0.80;0.68;;;15.80;84.30;;;;;;4990268;28;20050;-77
2021/08/29 04:38:30;;;;;;;1.48;0.63;;;15.80;84.30;;;;;;4990398;28;20034;-78
2021/08/29 04:40:56;;;;;;;1.30;0.52;;;15.80;84.30;;;;;;4989506;28;20057;-77
2021/08/29 04:43:22;;;;;;;1.50;0.70;;;15.80;84.30;;;;;;5007280;28;20092;-78
2021/08/29 04:45:48;;;;;;;0.82;0.57;;;15.90;84.30;;;;;;5006492;28;20039;-78
2021/08/29 04:48:15;;;;;;;0.50;0.50;;;15.90;84.40;;;;;;4989750;28;20045;-77
2021/08/29 04:50:41;;;;;;;0.50;0.50;;;15.90;84.40;;;;;;4987591;28;20038;-77
2021/08/29 04:53:06;;;;;;;1.00;0.65;;;15.80;84.40;;;;;;4990439;28;20510;-78
2021/08/29 04:55:32;;;;;;;1.42;0.90;;;15.90;84.40;;;;;;4990245;28;20081;-77
2021/08/29 04:57:58;;;;;;;0.52;0.45;;;15.90;84.40;;;;;;4989324;28;20053;-77
2021/08/29 05:00:24;;;;;;;1.25;0.90;;;16.00;84.50;;;;;;4992237;28;20044;-77
2021/08/29 05:02:49;;;;;;;3.20;0.80;;;15.90;84.40;;;;;;5007808;28;20228;-78
2021/08/29 05:05:15;;;;;;;2.08;0.80;;;15.90;84.40;;;;;;4992684;28;20039;-77
2021/08/29 05:07:41;;;;;;;0.60;0.57;;;15.90;84.40;;;;;;4993807;28;20406;-78
2021/08/29 05:10:07;;;;;;;1.08;0.60;;;16.00;84.40;;;;;;4995101;28;20046;-78
2021/08/29 05:12:33;;;;;;;1.58;0.77;;;15.90;84.30;;;;;;4995003;28;20074;-78
2021/08/29 05:14:58;;;;;;;0.40;0.40;;;16.00;84.40;;;;;;4995462;28;20076;-78
2021/08/29 05:17:24;;;;;;;1.92;0.50;;;16.00;84.40;;;;;;4994683;28;20058;-77
2021/08/29 05:19:50;;;;;;;1.77;0.57;;;16.00;84.40;;;;;;4992192;28;20379;-77
2021/08/29 05:22:15;;;;;;;0.73;0.50;;;16.00;84.40;;;;;;4991941;28;20402;-77
2021/08/29 05:24:41;;;;;;;1.55;0.60;;;16.10;84.40;;;;;;4993375;28;20042;-79
2021/08/29 05:27:07;;;;;;;2.60;0.90;;;16.10;84.50;;;;;;4992641;28;20034;-78
2021/08/29 05:29:33;;;;;;;1.13;0.70;;;16.10;84.40;;;;;;4992727;28;20149;-78
2021/08/29 05:32:15;;;;;;;1.08;0.70;;;16.10;84.40;;;;;;5151291;27;20135;-77
2021/08/29 05:34:40;;;;;;;2.63;0.77;;;16.20;84.40;;;;;;5095173;28;20485;-78
2021/08/29 05:37:06;;;;;;;0.95;0.63;;;16.20;84.40;;;;;;5094650;28;20093;-78
2021/08/29 05:39:32;;;;;;;1.23;0.57;;;16.20;84.30;;;;;;5077860;28;20043;-79
2021/08/29 05:41:58;;;;;;;2.10;0.60;;;16.20;84.30;;;;;;5077570;28;20118;-78
2021/08/29 05:44:24;;;;;;;1.02;0.47;;;16.20;84.30;;;;;;5112028;28;20062;-78
2021/08/29 05:46:49;;;;;;;2.28;0.93;;;16.10;84.30;;;;;;5130196;28;20035;-78
2021/08/29 05:49:15;;;;;;;0.90;0.70;;;16.20;84.40;;;;;;5130100;28;20028;-78
2021/08/29 05:51:41;;;;;;;1.17;0.50;;;16.20;84.40;;;;;;5112104;28;20044;-77
2021/08/29 05:54:07;;;;;;;1.35;0.63;;;16.30;84.40;;;;;;5077764;28;20126;-77
2021/08/29 05:56:32;;;;;;;1.83;0.90;;;16.30;84.40;;;;;;5077767;28;20509;-77
2021/08/29 05:58:58;;;;;;;1.77;1.00;;;16.30;84.40;;;;;;5130393;28;20087;-78
2021/08/29 06:01:24;;;;;;;1.10;0.70;;;16.30;84.40;;;;;;5111959;28;20043;-79
2021/08/29 06:03:49;;;;;;;2.47;0.77;;;16.30;84.40;;;;;;5110071;28;20134;-78
2021/08/29 06:06:15;;;;;;;0.65;0.60;;;16.30;84.40;;;;;;5111894;28;20043;-77
2021/08/29 06:08:41;;;;;;;2.35;0.85;;;16.30;84.40;;;;;;5077535;28;20043;-78
2021/08/29 06:11:08;;;;;;;1.52;0.80;;;16.30;84.40;;;;;;5129598;28;20035;-77
2021/08/29 06:13:35;;;;;;;0.82;0.60;;;16.30;84.40;;;;;;5092583;28;20051;-78
2021/08/29 06:16:01;;;;;;;1.60;0.73;;;16.30;84.40;;;;;;5110875;28;20042;-78
2021/08/29 06:18:26;;;;;;;1.48;0.70;;;16.30;84.40;;;;;;5129189;28;20477;-77
2021/08/29 06:20:52;;;;;;;1.23;0.60;;;16.40;84.40;;;;;;5110851;28;20047;-78
2021/08/29 06:23:18;;;;;;;1.30;0.73;;;16.50;84.50;;;;;;5129148;28;20049;-78
2021/08/29 06:25:44;;;;;;;3.65;0.73;;;16.30;84.30;;;;;;5077059;28;20165;-78
2021/08/29 06:28:09;;;;;;;0.98;0.70;;;16.40;84.40;;;;;;5129028;28;20490;-78
2021/08/29 06:30:35;;;;;;;1.83;0.80;;;16.40;84.40;;;;;;5092300;28;20046;-79
2021/08/29 06:33:01;;;;;;;1.88;0.73;;;16.40;84.40;;;;;;5110883;28;20054;-78
2021/08/29 06:35:27;;;;;;;1.55;0.70;;;16.40;84.40;;;;;;5129390;28;20035;-79
2021/08/29 06:37:53;;;;;;;0.63;0.57;;;16.50;84.40;;;;;;5129468;28;20088;-78
2021/08/29 06:40:18;;;;;;;1.20;0.63;;;16.50;84.40;;;;;;5111126;28;20492;-78
2021/08/29 06:42:44;;;;;;;0.65;0.52;;;16.50;84.40;;;;;;5120760;28;20043;-78
2021/08/29 06:45:11;;;;;;;1.60;0.82;;;16.50;84.40;;;;;;5097811;28;20501;-78
2021/08/29 06:47:37;;;;;;;1.15;0.75;;;16.50;84.40;;;;;;5116233;28;20066;-77
2021/08/29 06:50:04;;;;;;;1.23;0.60;;;16.50;84.30;;;;;;5097367;28;20059;-77
2021/08/29 06:52:30;;;;;;;1.45;0.90;;;16.60;84.30;;;;;;5080176;28;20181;-80
2021/08/29 06:54:56;;;;;;;3.75;0.95;;;16.60;84.30;;;;;;5097049;28;20036;-78
2021/08/29 06:57:24;;;;;;;0.75;0.47;;;16.60;84.30;;;;;;5115408;28;20389;-78
2021/08/29 06:59:51;;;;;;;1.98;0.88;;;16.70;84.30;;;;;;5097357;28;20040;-78
2021/08/29 07:02:16;;;;;;;2.42;0.95;;;16.70;84.30;;;;;;5115338;28;20564;-78
2021/08/29 07:04:42;;;;;;;1.38;0.60;;;16.70;84.20;;;;;;5096927;28;20071;-78
2021/08/29 07:07:10;;;;;;;1.58;0.85;;;16.70;84.20;;;;;;5115112;28;20027;-78
2021/08/29 07:09:38;;;;;;;2.63;0.70;;;16.80;84.10;;;;;;5096589;28;20035;-77
2021/08/29 07:12:04;;;;;;;1.70;0.60;;;16.80;84.10;;;;;;5080076;28;20051;-78
2021/08/29 07:14:30;;;;;;;1.38;0.90;;;16.80;84.00;;;;;;5079911;28;20088;-78
2021/08/29 07:16:56;;;;;;;1.05;0.63;;;16.80;84.10;;;;;;5061511;28;20123;-78
2021/08/29 07:19:21;;;;;;;1.70;0.57;;;16.80;84.10;;;;;;5096529;28;20036;-79
2021/08/29 07:21:47;;;;;;;1.58;0.90;;;16.80;84.10;;;;;;5097006;28;20409;-78
2021/08/29 07:24:13;;;;;;;0.95;0.60;;;16.80;84.10;;;;;;5096721;28;20039;-78
2021/08/29 07:26:39;;;;;;;1.27;0.52;;;16.80;84.10;;;;;;5096709;28;20047;-78
2021/08/29 07:29:05;;;;;;;0.82;0.47;;;16.80;84.00;;;;;;5097046;28;20525;-78
2021/08/29 07:31:31;;;;;;;0.70;0.40;;;16.80;84.10;;;;;;5079446;28;20120;-78
2021/08/29 07:33:57;;;;;;;1.67;0.70;;;16.80;84.20;;;;;;5094419;28;20087;-79
2021/08/29 07:36:23;;;;;;;0.40;0.40;;;16.80;84.30;;;;;;5062956;28;20039;-78
2021/08/29 07:38:48;;;;;;;1.05;0.60;;;16.80;84.30;;;;;;5079525;28;20554;-78
2021/08/29 07:41:14;;;;;;;0.90;0.50;;;16.80;84.40;;;;;;5079354;28;20028;-78
2021/08/29 07:43:40;;;;;;;1.75;0.70;;;16.70;84.40;;;;;;5079427;28;20048;-79
2021/08/29 07:46:06;;;;;;;1.27;0.60;;;16.70;84.50;;;;;;5078636;28;20564;-78
2021/08/29 07:48:32;;;;;;;2.05;0.82;;;16.70;84.50;;;;;;5094813;28;20071;-77
2021/08/29 07:50:58;;;;;;;1.75;0.90;;;16.80;84.60;;;;;;5079493;28;20071;-78
2021/08/29 07:53:23;;;;;;;1.23;0.70;;;16.70;84.50;;;;;;5095918;28;20092;-77
2021/08/29 07:55:49;;;;;;;1.33;0.52;;;16.80;84.60;;;;;;5113964;28;20046;-78
2021/08/29 07:58:15;;;;;;;0.90;0.60;;;16.80;84.60;;;;;;5077609;28;20090;-78
2021/08/29 08:00:41;;;;;;;2.97;0.93;;;16.90;84.50;;;;;;5078901;28;20084;-79
2021/08/29 08:03:07;;;;;;;1.05;0.70;;;16.90;84.40;;;;;;5095888;28;20045;-79
2021/08/29 08:05:32;;;;;;;1.30;0.50;;;16.80;84.30;;;;;;5078086;28;20545;-80
2021/08/29 08:07:59;;;;;;;1.60;0.77;;;16.80;84.40;;;;;;5078953;28;20100;-79
2021/08/29 08:10:26;;;;;;;0.98;0.57;;;16.80;84.50;;;;;;5062380;28;20103;-79
2021/08/29 08:12:52;;;;;;;2.58;0.80;;;16.80;84.60;;;;;;5062499;28;20036;-79
2021/08/29 08:15:18;;;;;;;1.73;0.80;;;16.80;84.60;;;;;;5114079;28;20030;-79
2021/08/29 08:17:44;;;;;;;1.95;0.80;;;16.80;84.70;;;;;;5114771;28;20035;-79
2021/08/29 08:20:10;;;;;;;2.97;1.00;;;16.80;84.80;;;;;;5079649;28;20023;-79
2021/08/29 08:22:36;;;;;;;1.73;0.88;;;16.70;84.80;;;;;;5095718;28;20047;-79
2021/08/29 08:25:03;;;;;;;2.10;0.80;;;16.70;84.90;;;;;;5096052;28;20402;-78
2021/08/29 08:27:29;;;;;;;1.10;0.60;;;16.70;85.00;;;;;;5114434;28;20050;-78
2021/08/29 08:29:55;;;;;;;1.42;0.70;;;16.70;85.00;;;;;;5079407;28;20503;-79
2021/08/29 08:32:21;;;;;;;1.98;0.90;;;16.70;85.10;;;;;;5096695;28;20032;-80
2021/08/29 08:34:46;;;;;;;2.08;0.90;;;16.60;85.00;;;;;;5094363;28;20047;-78
2021/08/29 08:37:12;;;;;;;0.77;0.63;;;16.60;85.20;;;;;;5079670;28;20104;-79
2021/08/29 08:39:38;;;;;;;2.17;0.73;;;16.60;85.30;;;;;;5117050;28;20043;-78
2021/08/29 08:42:04;;;;;;;1.58;0.70;;;16.50;85.30;;;;;;5113963;28;20050;-79
2021/08/29 08:44:30;;;;;;;0.93;0.60;;;16.60;85.40;;;;;;5061759;28;20039;-79
2021/08/29 08:46:57;;;;;;;1.17;0.55;;;16.50;85.50;;;;;;5093594;28;20504;-78
2021/08/29 08:49:25;;;;;;;0.60;0.60;;;16.50;86.20;;;;;;5095529;28;20044;-79
2021/08/29 08:51:55;;;;;;;1.30;0.60;;;16.40;85.50;;;;;;5078599;28;20051;-79
2021/08/29 08:54:21;;;;;;;1.15;0.50;;;16.50;85.70;;;;;;5078815;28;20038;-78
2021/08/29 08:56:47;;;;;;;1.90;0.85;;;16.50;85.70;;;;;;5095614;28;20035;-78
2021/08/29 08:59:14;;;;;;;1.50;0.68;;;16.50;85.80;;;;;;5113873;28;20035;-79
2021/08/29 09:01:40;;;;;;;0.80;0.45;;;16.40;85.70;;;;;;5113446;28;20093;-78
2021/08/29 09:04:06;;;;;;;0.70;0.60;;;16.40;85.80;;;;;;5113278;28;20489;-78
2021/08/29 09:06:34;;;;;;;1.55;0.90;;;16.40;85.90;;;;;;5113052;28;20067;-76
2021/08/29 09:09:02;;;;;;;1.00;0.70;;;16.40;86.00;;;;;;5113232;28;20126;-76
2021/08/29 09:11:31;;;;;;;1.35;0.70;;;16.40;86.10;;;;;;5093643;28;20451;-78
2021/08/29 09:13:57;;;;;;;0.63;0.40;;;16.30;86.60;;;;;;5076441;28;20036;-79
2021/08/29 09:16:25;;;;;;;2.67;0.80;;;16.40;86.10;;;;;;5094074;28;20128;-78
2021/08/29 09:18:56;;;;;;;2.10;0.60;;;16.40;86.20;;;;;;5077169;28;20105;-77
2021/08/29 09:21:29;;;;;;;2.17;0.75;;;16.30;86.20;;;;;;5061148;28;20485;-76
2021/08/29 09:23:57;;;;;;;0.90;0.70;;;16.20;86.20;;;;;;5094332;28;20481;-77
2021/08/29 09:26:25;;;;;;;1.80;0.90;;;16.30;86.40;;;;;;5078409;28;20849;-76
2021/08/29 09:28:56;;;;;;;1.58;0.68;;;16.30;86.40;;;;;;5112990;28;20043;-77
2021/08/29 09:31:21;;;;;;;2.42;0.73;;;16.30;86.40;;;;;;5094510;28;20122;-77
2021/08/29 09:34:03;;;;;;;2.42;0.75;;;16.30;86.30;;;;;;5059321;28;20070;-76
2021/08/29 09:36:30;;;;;;;1.45;0.68;;;16.30;86.30;;;;;;5094600;28;20124;-77
2021/08/29 09:39:11;;;;;;;2.00;0.88;;;16.30;86.20;;;;;;5094777;28;20622;-77
2021/08/29 09:41:37;;;;;;;1.23;0.50;;;16.30;86.30;;;;;;5093392;28;20051;-78
2021/08/29 09:44:14;;;;;;;1.00;0.65;;;16.30;86.40;;;;;;5078114;28;20281;-77
2021/08/29 09:46:55;;;;;;;1.08;0.55;;;16.20;86.50;;;;;;5077727;28;20043;-76
2021/08/29 09:49:30;;;;;;;0.65;0.50;;;16.20;86.70;;;;;;5113006;28;20121;-76
2021/08/29 09:51:59;;;;;;;1.50;0.57;;;16.30;86.80;;;;;;5061145;28;20044;-77
2021/08/29 09:54:32;;;;;;;0.52;0.50;;;16.40;86.80;;;;;;5112560;28;20046;-77
2021/08/29 09:56:59;;;;;;;0.93;0.80;;;16.40;86.60;;;;;;5078354;28;20039;-76
2021/08/29 09:59:43;;;;;;;1.48;0.70;;;16.50;86.70;;;;;;5094556;28;20495;-76
2021/08/29 10:02:11;;;;;;;1.05;0.60;;;16.50;86.80;;;;;;5094525;28;20040;-77
2021/08/29 10:04:38;;;;;;;0.95;0.43;;;16.60;86.80;;;;;;5093168;28;20052;-77
2021/08/29 10:07:13;;;;;;;1.63;0.70;;;16.50;86.70;;;;;;5094628;28;20043;-76
2021/08/29 10:09:39;;;;;;;1.00;0.60;;;16.50;86.70;;;;;;5059902;28;20059;-76
2021/08/29 10:12:06;;;;;;;0.63;0.50;;;16.50;86.80;;;;;;5112673;28;20408;-77
2021/08/29 10:14:33;;;;;;;1.33;0.55;;;16.60;86.80;;;;;;5112361;28;20040;-76
2021/08/29 10:16:59;;;;;;;1.38;0.80;;;16.50;86.90;;;;;;5094329;28;20051;-76
2021/08/29 10:19:27;;;;;;;0.70;0.50;;;16.50;87.00;;;;;;5115522;28;20043;-77
2021/08/29 10:21:54;;;;;;;1.00;0.70;;;16.50;87.10;;;;;;5079460;28;20043;-82
2021/08/29 10:24:20;;;;;;;1.33;0.60;;;16.50;87.10;;;;;;5115777;28;20478;-77
2021/08/29 10:26:51;;;;;;;1.08;0.60;;;16.40;87.20;;;;;;5116155;28;20092;-78
2021/08/29 10:29:19;;;;;;;1.27;0.63;;;16.50;87.30;;;;;;5081150;28;20050;-77
2021/08/29 10:32:02;;;;;;;1.15;0.60;;;16.60;87.30;;;;;;5116098;28;20572;-78
2021/08/29 10:34:30;;;;;;;0.73;0.40;;;16.60;87.30;;;;;;5081031;28;20075;-77
2021/08/29 10:36:56;;;;;;;0.50;0.30;;;16.60;87.10;;;;;;5080934;28;20036;-77
2021/08/29 10:39:22;;;;;;;1.65;0.50;;;16.60;87.20;;;;;;5080821;28;20039;-78
2021/08/29 10:41:49;;;;;;;1.25;0.50;;;16.70;87.20;;;;;;5097303;28;20514;-78
2021/08/29 10:44:17;;;;;;;1.67;0.60;;;16.70;87.20;;;;;;5097614;28;20043;-79
2021/08/29 10:46:46;;;;;;;1.75;0.60;;;16.90;87.40;;;;;;5115730;28;20043;-79
2021/08/29 10:49:15;;;;;;;0.68;0.40;;;16.60;87.20;;;;;;5096813;28;20044;-78
2021/08/29 10:51:41;;;;;;;1.08;0.70;;;16.70;87.40;;;;;;5063794;28;20043;-78
2021/08/29 10:54:12;;;;;;;1.52;0.50;;;16.70;87.40;;;;;;5112443;28;20101;-78
2021/08/29 10:56:38;;;;;;;1.67;0.55;;;16.70;87.50;;;;;;5078658;28;20477;-77
2021/08/29 10:59:24;;;;;;;1.20;0.40;;;16.70;87.60;;;;;;5097340;28;20031;-78
2021/08/29 11:02:09;;;;;;;0.68;0.60;;;16.70;87.70;;;;;;5082995;28;20035;-78
2021/08/29 11:04:44;;;;;;;0.50;0.38;;;16.70;87.70;;;;;;5065364;28;20074;-79
2021/08/29 11:07:09;;;;;;;0.55;0.43;;;16.70;87.70;;;;;;5095334;28;20039;-77
2021/08/29 11:09:44;;;;;;;0.93;0.30;;;16.80;87.70;;;;;;5096597;28;20130;-78
2021/08/29 11:12:30;;;;;;;0.47;0.40;;;16.80;87.70;;;;;;5115049;28;20100;-77
2021/08/29 11:14:59;;;;;;;1.48;0.70;;;16.70;87.70;;;;;;5082684;28;20036;-77
2021/08/29 11:17:27;;;;;;;0.60;0.50;;;16.80;87.70;;;;;;5115292;28;20520;-77
2021/08/29 11:20:07;;;;;;;0.80;0.47;;;16.70;87.70;;;;;;5096715;28;20074;-79
2021/08/29 11:22:39;;;;;;;1.23;0.50;;;16.80;87.70;;;;;;5081612;28;20036;-78
2021/08/29 11:25:23;;;;;;;0.60;0.50;;;16.80;87.70;;;;;;5114852;28;20054;-80
2021/08/29 11:27:53;;;;;;;0.80;0.50;;;16.80;87.80;;;;;;5097031;28;20040;-77
2021/08/29 11:30:23;;;;;;;0.57;0.50;;;16.90;87.80;;;;;;5095655;28;20063;-78
2021/08/29 11:32:59;;;;;;;0.77;0.50;;;16.90;87.80;;;;;;5079021;28;20036;-78
2021/08/29 11:35:32;;;;;;;0.30;0.30;;;16.90;87.80;;;;;;5078732;28;20044;-78
2021/08/29 11:38:05;;;;;;;1.52;0.45;;;17.00;87.80;;;;;;5096368;28;20485;-80
2021/08/29 11:40:54;;;;;;;0.40;0.30;;;17.00;87.80;;;;;;5094803;28;20186;-78
2021/08/29 11:43:30;;;;;;;1.05;0.40;;;16.90;88.20;;;;;;5097539;28;20059;-78
2021/08/29 11:46:01;;;;;;;0.63;0.40;;;17.00;87.80;;;;;;5115042;28;20051;-79
2021/08/29 11:48:31;;;;;;;0.80;0.40;;;17.00;87.80;;;;;;5114516;28;20043;-79
2021/08/29 11:50:58;;;;;;;0.55;0.40;;;17.00;87.90;;;;;;5116626;28;20079;-80
2021/08/29 11:53:24;;;;;;;0.45;0.40;;;17.00;87.90;;;;;;5080654;28;20543;-80
2021/08/29 11:55:56;;;;;;;0.30;0.30;;;17.00;88.00;;;;;;5117559;28;20067;-80
2021/08/29 11:58:23;;;;;;;0.52;0.40;;;17.10;88.10;;;;;;5085489;28;20051;-80
2021/08/29 12:00:50;;;;;;;1.02;0.30;;;17.00;88.00;;;;;;5084874;28;20126;-80
2021/08/29 12:03:16;;;;;;;0.55;0.30;;;17.00;88.10;;;;;;5098337;28;20044;-80
2021/08/29 12:05:53;;;;;;;0.30;0.30;;;17.00;88.20;;;;;;5099615;28;20103;-80
2021/08/29 12:08:30;;;;;;;0.60;0.60;;;17.00;88.20;;;;;;5101108;28;20089;-81
2021/08/29 12:10:57;;;;;;;0.93;0.45;;;17.00;88.30;;;;;;5119847;28;20089;-82
2021/08/29 12:13:28;;;;;;;0.47;0.40;;;17.00;88.20;;;;;;5065197;28;20035;-81
2021/08/29 12:15:56;;;;;;;0.95;0.40;;;17.10;88.30;;;;;;5100219;28;20032;-81
2021/08/29 12:18:24;;;;;;;0.70;0.60;;;17.00;88.20;;;;;;5100718;28;20032;-80
2021/08/29 12:20:53;;;;;;;0.90;0.50;;;17.20;88.20;;;;;;5068959;28;20043;-81
2021/08/29 12:23:20;;;;;;;0.52;0.50;;;17.30;88.30;;;;;;5078963;28;20511;-80
2021/08/29 12:25:56;;;;;;;0.50;0.50;;;17.30;88.10;;;;;;5062850;28;20032;-80
2021/08/29 12:28:22;;;;;;;0.30;0.30;;;17.30;88.00;;;;;;5098212;28;20134;-82
2021/08/29 12:30:55;;;;;;;1.27;0.50;;;17.30;88.00;;;;;;5095764;28;20076;-79
2021/08/29 12:33:21;;;;;;;0.63;0.50;;;17.50;88.10;;;;;;5096864;28;20035;-82
2021/08/29 12:35:48;;;;;;;0.47;0.47;;;17.40;88.10;;;;;;5075569;28;20126;-81
2021/08/29 12:38:18;;;;;;;1.02;0.60;;;17.50;88.10;;;;;;5061997;28;20480;-82
2021/08/29 12:40:44;;;;;;;0.80;0.60;;;17.50;87.90;;;;;;5078873;28;20051;-82
2021/08/29 12:43:10;;;;;;;0.85;0.60;;;17.60;87.90;;;;;;5096464;28;20044;-78
2021/08/29 12:45:36;;;;;;;0.50;0.50;;;17.60;87.80;;;;;;5097960;28;20044;-81
2021/08/29 12:48:03;;;;;;;0.50;0.45;;;17.60;87.70;;;;;;5064518;28;20043;-81
2021/08/29 12:50:29;;;;;;;0.70;0.60;;;17.70;87.70;;;;;;5114503;28;20036;-80